Time;durP1;ratioP1;P1;durP2;ratioP2;P2;SDS_P1;SDS_P2;PMS_P1;PMS_P2;Temp;Humidity;BMP_temperature;BMP_pressure;BME280_temperature;BME280_humidity;BME280_pressure;Samples;Min_cycle;Max_cycle;Signal;HPM_P1;HPM_P2
2024/03/17 00:01:36;;;;;;;6.18;3.85;;;8.60;99.90;;;;;;4156355;28;20045;-59
2024/03/17 00:03:37;;;;;;;5.68;3.80;;;8.50;99.90;;;;;;4158721;28;20043;-60
2024/03/17 00:05:38;;;;;;;7.88;4.35;;;8.50;99.90;;;;;;4157910;28;20079;-59
2024/03/17 00:07:39;;;;;;;5.18;3.83;;;8.50;99.90;;;;;;4158578;28;20042;-59
2024/03/17 00:09:41;;;;;;;8.50;4.05;;;8.50;99.90;;;;;;4155772;28;20136;-61
2024/03/17 00:11:41;;;;;;;4.57;3.47;;;8.50;99.90;;;;;;4157677;28;20474;-59
2024/03/17 00:13:42;;;;;;;5.57;3.70;;;8.50;99.90;;;;;;4159136;28;20049;-59
2024/03/17 00:15:43;;;;;;;7.95;4.57;;;8.50;99.90;;;;;;4155616;28;20504;-60
2024/03/17 00:17:44;;;;;;;6.13;3.78;;;8.50;99.90;;;;;;4158457;28;20062;-59
2024/03/17 00:19:44;;;;;;;6.53;3.65;;;8.50;99.90;;;;;;4155662;28;20047;-60
2024/03/17 00:21:45;;;;;;;7.20;3.72;;;8.40;99.90;;;;;;4155776;28;20037;-59
2024/03/17 00:23:49;;;;;;;5.30;3.78;;;8.50;99.90;;;;;;4137051;28;20578;-61
2024/03/17 00:25:50;;;;;;;5.82;3.80;;;8.40;99.90;;;;;;4155243;28;20060;-59
2024/03/17 00:27:55;;;;;;;5.53;3.53;;;8.40;99.90;;;;;;4154076;28;20041;-59
2024/03/17 00:29:56;;;;;;;5.35;3.70;;;8.40;99.90;;;;;;4155708;28;20116;-59
2024/03/17 00:31:56;;;;;;;5.10;3.50;;;8.40;99.90;;;;;;4155076;28;20514;-59
2024/03/17 00:33:57;;;;;;;7.18;3.60;;;8.40;99.90;;;;;;4156892;28;20116;-72
2024/03/17 00:35:59;;;;;;;8.05;3.80;;;8.40;99.90;;;;;;4156697;28;20116;-65
2024/03/17 00:38:03;;;;;;;4.78;3.65;;;8.40;99.90;;;;;;4159276;28;20973;-65
2024/03/17 00:40:06;;;;;;;7.95;4.10;;;8.40;99.90;;;;;;4159995;28;20033;-66
2024/03/17 00:42:06;;;;;;;5.60;4.07;;;8.40;99.90;;;;;;4160724;28;20064;-65
2024/03/17 00:44:07;;;;;;;7.72;3.63;;;8.40;99.90;;;;;;4161915;28;20025;-65
2024/03/17 00:46:07;;;;;;;6.18;3.53;;;8.40;99.90;;;;;;4160428;28;20053;-65
2024/03/17 00:48:09;;;;;;;5.15;3.20;;;8.40;99.90;;;;;;4157246;28;20036;-65
2024/03/17 00:50:11;;;;;;;4.85;3.22;;;8.40;99.90;;;;;;4158824;28;20037;-65
2024/03/17 00:52:12;;;;;;;6.30;3.58;;;8.40;99.90;;;;;;4160894;28;20152;-65
2024/03/17 00:54:12;;;;;;;4.85;3.50;;;8.40;99.90;;;;;;4161156;28;20073;-65
2024/03/17 00:56:13;;;;;;;6.35;3.30;;;8.40;99.90;;;;;;4159813;28;20045;-65
2024/03/17 00:58:13;;;;;;;5.20;3.45;;;8.40;99.90;;;;;;4160871;28;20579;-66
2024/03/17 01:00:15;;;;;;;4.88;3.33;;;8.40;99.90;;;;;;4155294;28;20030;-65
2024/03/17 01:02:16;;;;;;;5.93;3.65;;;8.30;99.90;;;;;;4160222;28;20072;-65
2024/03/17 01:04:17;;;;;;;7.32;3.60;;;8.30;99.90;;;;;;4160841;28;20378;-65
2024/03/17 01:06:17;;;;;;;5.90;3.53;;;8.30;99.90;;;;;;4160470;28;20072;-65
2024/03/17 01:08:19;;;;;;;5.32;3.60;;;8.30;99.90;;;;;;4158644;28;20029;-65
2024/03/17 01:10:19;;;;;;;5.55;3.53;;;8.30;99.90;;;;;;4157562;28;20040;-65
2024/03/17 01:12:20;;;;;;;6.18;3.30;;;8.30;99.90;;;;;;4154775;28;20045;-65
2024/03/17 01:14:20;;;;;;;6.00;3.17;;;8.30;99.90;;;;;;4159465;28;20046;-65
2024/03/17 01:16:21;;;;;;;5.45;3.22;;;8.40;99.90;;;;;;4160251;28;20041;-65
2024/03/17 01:18:22;;;;;;;6.40;3.38;;;8.40;99.90;;;;;;4158430;28;20067;-65
2024/03/17 01:20:22;;;;;;;7.68;4.25;;;8.30;99.90;;;;;;4158813;28;20469;-65
2024/03/17 01:22:23;;;;;;;8.75;3.72;;;8.30;99.90;;;;;;4160760;28;20073;-65
2024/03/17 01:24:24;;;;;;;7.53;4.38;;;8.30;99.90;;;;;;4160714;28;20042;-65
2024/03/17 01:26:25;;;;;;;9.05;4.47;;;8.30;99.90;;;;;;4153844;28;20044;-65
2024/03/17 01:28:26;;;;;;;9.57;4.55;;;8.30;99.90;;;;;;4158667;28;20025;-65
2024/03/17 01:30:27;;;;;;;8.13;3.80;;;8.30;99.90;;;;;;4159694;28;20049;-65
2024/03/17 01:32:28;;;;;;;6.35;3.92;;;8.20;99.90;;;;;;4157841;28;20042;-65
2024/03/17 01:34:28;;;;;;;7.88;4.30;;;8.20;99.90;;;;;;4160800;28;20041;-65
2024/03/17 01:36:29;;;;;;;8.98;4.30;;;8.30;99.90;;;;;;4160026;28;20100;-65
2024/03/17 01:38:30;;;;;;;6.50;4.18;;;8.20;99.90;;;;;;4160188;28;20033;-65
2024/03/17 01:40:30;;;;;;;9.25;4.60;;;8.20;99.90;;;;;;4158139;28;20030;-65
2024/03/17 01:42:31;;;;;;;6.65;4.10;;;8.20;99.90;;;;;;4160708;28;20504;-65
2024/03/17 01:44:32;;;;;;;7.38;3.90;;;8.20;99.90;;;;;;4158767;28;20026;-70
2024/03/17 01:46:32;;;;;;;8.40;4.07;;;8.20;99.90;;;;;;4158553;28;20045;-68
2024/03/17 01:48:33;;;;;;;10.00;4.70;;;8.20;99.90;;;;;;4157456;28;20045;-70
2024/03/17 01:50:36;;;;;;;8.10;4.10;;;8.20;99.90;;;;;;4158088;28;20034;-71
2024/03/17 01:52:37;;;;;;;6.70;4.20;;;8.20;99.90;;;;;;4159931;28;20049;-70
2024/03/17 01:54:38;;;;;;;7.32;3.83;;;8.20;99.90;;;;;;4157439;28;20029;-70
2024/03/17 01:56:39;;;;;;;7.03;4.10;;;8.20;99.90;;;;;;4159571;28;20371;-70
2024/03/17 01:58:44;;;;;;;5.97;4.05;;;8.20;99.90;;;;;;4155343;28;20057;-70
2024/03/17 02:00:45;;;;;;;8.75;4.43;;;8.10;99.90;;;;;;4158506;28;20037;-70
2024/03/17 02:02:45;;;;;;;7.40;3.80;;;8.20;99.90;;;;;;4160160;28;20163;-69
2024/03/17 02:04:47;;;;;;;5.72;3.75;;;8.20;99.90;;;;;;4190911;28;20186;-70
2024/03/17 02:06:48;;;;;;;7.63;4.10;;;8.20;99.90;;;;;;4158225;28;20520;-70
2024/03/17 02:08:54;;;;;;;6.88;3.75;;;8.20;99.90;;;;;;4157253;28;20268;-70
2024/03/17 02:10:55;;;;;;;7.00;3.80;;;8.20;99.90;;;;;;4156276;28;20512;-70
2024/03/17 02:12:55;;;;;;;7.20;3.80;;;8.20;99.90;;;;;;4157669;28;20034;-70
2024/03/17 02:14:59;;;;;;;7.22;4.05;;;8.20;99.90;;;;;;4154908;28;20393;-70
2024/03/17 02:17:00;;;;;;;7.70;4.13;;;8.20;99.90;;;;;;4147574;28;20071;-71
2024/03/17 02:19:00;;;;;;;5.97;3.85;;;8.20;99.90;;;;;;4151878;28;20065;-70
2024/03/17 02:21:01;;;;;;;6.32;3.70;;;8.20;99.90;;;;;;4157247;28;20461;-70
2024/03/17 02:23:02;;;;;;;6.72;3.85;;;8.20;99.90;;;;;;4155643;28;20034;-71
2024/03/17 02:25:03;;;;;;;7.75;3.85;;;8.20;99.90;;;;;;4156711;28;20033;-71
2024/03/17 02:27:04;;;;;;;7.40;3.80;;;8.20;99.90;;;;;;4158557;28;20057;-70
2024/03/17 02:29:04;;;;;;;9.23;3.65;;;8.20;99.90;;;;;;4158929;28;20045;-70
2024/03/17 02:31:06;;;;;;;8.63;4.50;;;8.20;99.90;;;;;;4159154;28;20470;-70
2024/03/17 02:33:07;;;;;;;5.32;3.47;;;8.10;99.90;;;;;;4160243;28;20038;-70
2024/03/17 02:35:11;;;;;;;8.70;4.10;;;8.10;99.90;;;;;;4156020;28;20083;-71
2024/03/17 02:37:11;;;;;;;7.20;4.07;;;8.10;99.90;;;;;;4157460;28;20534;-71
2024/03/17 02:41:31;;;;;;;8.75;4.20;;;8.00;99.90;;;;;;4156760;28;20045;-70
2024/03/17 02:43:32;;;;;;;6.47;4.15;;;8.00;99.90;;;;;;4159484;28;20259;-70
2024/03/17 02:45:33;;;;;;;7.75;4.43;;;8.00;99.90;;;;;;4157958;28;20103;-70
2024/03/17 02:47:33;;;;;;;6.57;4.00;;;8.00;99.90;;;;;;4159181;28;20343;-69
2024/03/17 02:49:39;;;;;;;7.57;4.28;;;8.00;99.90;;;;;;4159208;28;20037;-68
2024/03/17 02:51:39;;;;;;;9.32;4.13;;;8.00;99.90;;;;;;4157144;28;20453;-70
2024/03/17 02:53:47;;;;;;;6.30;3.80;;;8.00;99.90;;;;;;4159709;28;20038;-70
2024/03/17 02:55:47;;;;;;;8.05;4.05;;;8.00;99.90;;;;;;4156303;28;20030;-67
2024/03/17 02:57:48;;;;;;;8.48;4.13;;;7.90;99.90;;;;;;4159206;28;20038;-67
2024/03/17 02:59:49;;;;;;;6.35;3.45;;;7.90;99.90;;;;;;4157631;28;20041;-67
2024/03/17 03:01:49;;;;;;;7.50;4.18;;;7.90;99.90;;;;;;4158489;28;20056;-67
2024/03/17 03:03:50;;;;;;;7.13;4.15;;;7.90;99.90;;;;;;4159438;28;20050;-67
2024/03/17 03:05:52;;;;;;;5.75;4.05;;;8.00;99.90;;;;;;4158479;28;20482;-67
2024/03/17 03:07:52;;;;;;;8.45;4.00;;;8.00;99.90;;;;;;4157746;28;20506;-67
2024/03/17 03:09:54;;;;;;;6.68;3.58;;;8.00;99.90;;;;;;4158395;28;20069;-67
2024/03/17 03:11:54;;;;;;;7.05;4.28;;;7.90;99.90;;;;;;4156670;28;20466;-68
2024/03/17 03:13:55;;;;;;;5.97;4.10;;;8.00;99.90;;;;;;4159494;28;20022;-67
2024/03/17 03:15:55;;;;;;;6.43;3.88;;;7.90;99.90;;;;;;4156916;28;20057;-68
2024/03/17 03:17:56;;;;;;;7.43;3.85;;;7.90;99.90;;;;;;4155357;28;20045;-67
2024/03/17 03:19:56;;;;;;;7.35;4.25;;;7.90;99.90;;;;;;4159099;28;20127;-68
2024/03/17 03:21:57;;;;;;;8.32;4.10;;;7.90;99.90;;;;;;4158434;28;20207;-68
2024/03/17 03:23:58;;;;;;;5.97;3.63;;;7.90;99.90;;;;;;4158553;28;20467;-68
2024/03/17 03:26:00;;;;;;;9.25;3.80;;;7.90;99.90;;;;;;4158319;28;20037;-67
2024/03/17 03:28:01;;;;;;;11.32;4.28;;;7.90;99.90;;;;;;4158940;28;20371;-68
2024/03/17 03:30:03;;;;;;;8.20;3.83;;;7.90;99.90;;;;;;4158571;28;20033;-68
2024/03/17 03:32:04;;;;;;;6.53;3.95;;;7.90;99.90;;;;;;4156531;28;20042;-67
2024/03/17 03:34:07;;;;;;;9.32;3.63;;;7.90;99.90;;;;;;4157605;28;20048;-66
2024/03/17 03:36:12;;;;;;;10.52;4.82;;;7.90;99.90;;;;;;4156150;28;20049;-68
2024/03/17 03:38:14;;;;;;;8.15;4.10;;;7.90;99.90;;;;;;4152098;28;20449;-67
2024/03/17 03:40:17;;;;;;;7.50;4.05;;;7.90;99.90;;;;;;4157423;28;20038;-68
2024/03/17 03:42:18;;;;;;;8.20;3.65;;;7.90;99.90;;;;;;4158624;28;20029;-66
2024/03/17 03:44:19;;;;;;;7.45;4.18;;;7.90;99.90;;;;;;4159365;28;20404;-68
2024/03/17 03:46:20;;;;;;;7.45;4.28;;;7.90;99.90;;;;;;4157553;28;20124;-67
2024/03/17 03:48:21;;;;;;;7.45;4.00;;;7.90;99.90;;;;;;4158812;28;20046;-68
2024/03/17 03:50:22;;;;;;;6.97;4.13;;;7.90;99.90;;;;;;4157233;28;20034;-68
2024/03/17 03:52:24;;;;;;;8.60;4.20;;;7.90;99.90;;;;;;4158948;28;20048;-68
2024/03/17 03:54:25;;;;;;;6.80;4.13;;;7.90;99.90;;;;;;4159289;28;20037;-67
2024/03/17 03:56:26;;;;;;;10.43;4.40;;;7.80;99.90;;;;;;4158358;28;20556;-67
2024/03/17 03:58:27;;;;;;;7.22;3.80;;;7.80;99.90;;;;;;4154876;28;20037;-67
2024/03/17 04:00:31;;;;;;;9.35;4.88;;;7.80;99.90;;;;;;4156095;28;20064;-68
2024/03/17 04:02:33;;;;;;;10.85;4.90;;;7.80;99.90;;;;;;4159200;28;20038;-67
2024/03/17 04:04:34;;;;;;;9.32;4.82;;;7.80;99.90;;;;;;4159518;28;20049;-66
2024/03/17 04:06:37;;;;;;;9.55;5.05;;;7.80;99.90;;;;;;4158115;28;20042;-66
2024/03/17 04:08:41;;;;;;;8.23;4.15;;;7.70;99.90;;;;;;4140029;28;20061;-66
2024/03/17 04:10:44;;;;;;;9.35;5.03;;;7.70;99.90;;;;;;4158879;28;20454;-65
2024/03/17 04:12:44;;;;;;;11.68;5.60;;;7.70;99.90;;;;;;4162331;28;20425;-66
2024/03/17 04:14:46;;;;;;;12.50;5.15;;;7.60;99.90;;;;;;4162070;28;20034;-66
2024/03/17 04:16:47;;;;;;;8.40;4.97;;;7.70;99.90;;;;;;4160850;28;20040;-66
2024/03/17 04:18:47;;;;;;;9.90;5.15;;;7.60;99.90;;;;;;4159447;28;20025;-66
2024/03/17 04:20:48;;;;;;;12.10;5.35;;;7.70;99.90;;;;;;4159863;28;20045;-66
2024/03/17 04:22:48;;;;;;;10.43;5.57;;;7.60;99.90;;;;;;4161122;28;20429;-67
2024/03/17 04:24:53;;;;;;;9.15;4.95;;;7.50;99.90;;;;;;4162028;28;20045;-66
2024/03/17 04:26:53;;;;;;;10.35;5.72;;;7.50;99.90;;;;;;4160633;28;20049;-66
2024/03/17 04:28:54;;;;;;;10.82;5.50;;;7.50;99.90;;;;;;4160562;28;20037;-66
2024/03/17 04:31:05;;;;;;;11.50;5.85;;;7.50;99.90;;;;;;4159332;28;20056;-66
2024/03/17 04:33:06;;;;;;;9.43;5.15;;;7.60;99.90;;;;;;4160757;28;20048;-66
2024/03/17 04:35:07;;;;;;;9.35;5.22;;;7.50;99.90;;;;;;4155167;28;20034;-66
2024/03/17 04:37:07;;;;;;;9.65;4.93;;;7.50;99.90;;;;;;4161249;28;20604;-66
2024/03/17 04:39:08;;;;;;;8.25;5.10;;;7.50;99.90;;;;;;4155939;28;25539;-66
2024/03/17 04:41:09;;;;;;;8.82;5.13;;;7.50;99.90;;;;;;4157341;28;20052;-66
2024/03/17 04:43:10;;;;;;;8.52;4.95;;;7.50;99.90;;;;;;4160210;28;20626;-66
2024/03/17 04:45:11;;;;;;;15.57;5.35;;;7.50;99.90;;;;;;4159740;28;20045;-66
2024/03/17 04:47:12;;;;;;;9.45;5.10;;;7.60;99.90;;;;;;4161732;28;20096;-66
2024/03/17 04:49:13;;;;;;;8.98;5.30;;;7.60;99.90;;;;;;4157582;28;20038;-66
2024/03/17 04:51:17;;;;;;;10.02;5.05;;;7.50;99.90;;;;;;4160267;28;20486;-66
2024/03/17 04:53:17;;;;;;;9.27;4.95;;;7.50;99.90;;;;;;4161724;28;20069;-66
2024/03/17 04:55:18;;;;;;;8.63;5.20;;;7.60;99.90;;;;;;4160563;28;20406;-66
2024/03/17 04:57:19;;;;;;;9.20;4.70;;;7.50;99.90;;;;;;4159041;28;20363;-67
2024/03/17 04:59:20;;;;;;;9.07;5.18;;;7.50;99.90;;;;;;4156640;28;20153;-67
2024/03/17 05:01:20;;;;;;;8.10;5.18;;;7.60;99.90;;;;;;4156191;28;20124;-65
2024/03/17 05:03:21;;;;;;;7.95;5.38;;;7.50;99.90;;;;;;4159691;28;20050;-65
2024/03/17 05:05:23;;;;;;;8.60;5.30;;;7.50;99.90;;;;;;4158740;28;20624;-66
2024/03/17 05:07:24;;;;;;;10.73;5.47;;;7.60;99.90;;;;;;4159629;28;20112;-66
2024/03/17 05:09:24;;;;;;;9.50;5.32;;;7.50;99.90;;;;;;4160005;28;20041;-65
2024/03/17 05:11:25;;;;;;;9.43;5.55;;;7.50;99.90;;;;;;4155311;28;20049;-66
2024/03/17 05:13:29;;;;;;;11.95;5.60;;;7.50;99.90;;;;;;4156883;28;20026;-66
2024/03/17 05:15:30;;;;;;;8.85;5.10;;;7.50;99.90;;;;;;4160440;28;20557;-65
2024/03/17 05:17:30;;;;;;;10.93;5.03;;;7.50;99.90;;;;;;4160816;28;20048;-65
2024/03/17 05:19:31;;;;;;;11.65;5.20;;;7.50;99.90;;;;;;4159259;28;20041;-65
2024/03/17 05:21:32;;;;;;;8.30;4.82;;;7.50;99.90;;;;;;4158120;28;20135;-65
2024/03/17 05:23:34;;;;;;;7.10;4.85;;;7.50;99.90;;;;;;4160883;28;20038;-65
2024/03/17 05:25:37;;;;;;;9.80;4.88;;;7.60;99.90;;;;;;4160153;28;20109;-65
2024/03/17 05:27:37;;;;;;;7.68;4.43;;;7.50;99.90;;;;;;4159826;28;20041;-66
2024/03/17 05:29:38;;;;;;;9.35;5.45;;;7.60;99.90;;;;;;4160314;28;20140;-65
2024/03/17 05:31:39;;;;;;;8.18;5.38;;;7.60;99.90;;;;;;4158606;28;20458;-65
2024/03/17 05:33:39;;;;;;;9.43;5.15;;;7.60;99.90;;;;;;4160873;28;20328;-65
2024/03/17 05:35:40;;;;;;;7.85;4.78;;;7.60;99.90;;;;;;4156721;28;20028;-65
2024/03/17 05:37:41;;;;;;;10.18;5.10;;;7.60;99.90;;;;;;4160389;28;20034;-66
2024/03/17 05:39:42;;;;;;;7.50;5.00;;;7.60;99.90;;;;;;4159325;28;20520;-65
2024/03/17 05:41:43;;;;;;;9.77;5.25;;;7.50;99.90;;;;;;4153857;28;20033;-65
2024/03/17 05:43:44;;;;;;;9.82;5.57;;;7.60;99.90;;;;;;4160664;28;20090;-65
2024/03/17 05:45:44;;;;;;;8.93;5.53;;;7.60;99.90;;;;;;4159283;28;20542;-65
2024/03/17 05:47:45;;;;;;;8.57;5.60;;;7.60;99.90;;;;;;4174945;28;20033;-65
2024/03/17 05:49:45;;;;;;;6.20;4.53;;;7.60;99.90;;;;;;4159492;28;20029;-65
2024/03/17 05:51:46;;;;;;;7.97;4.82;;;7.60;99.90;;;;;;4153748;28;20068;-65
2024/03/17 05:53:47;;;;;;;10.15;5.22;;;7.60;99.90;;;;;;4160585;28;20038;-65
2024/03/17 05:55:47;;;;;;;7.10;4.75;;;7.60;99.90;;;;;;4157492;28;20508;-65
2024/03/17 05:57:48;;;;;;;7.75;4.70;;;7.60;99.90;;;;;;4157757;28;20048;-65
2024/03/17 05:59:48;;;;;;;10.55;5.30;;;7.70;99.90;;;;;;4159074;28;20036;-65
2024/03/17 06:01:49;;;;;;;7.93;5.43;;;7.70;99.90;;;;;;4153201;28;20131;-65
2024/03/17 06:03:50;;;;;;;10.00;5.63;;;7.60;99.90;;;;;;4153575;28;20043;-65
2024/03/17 06:05:50;;;;;;;12.55;5.80;;;7.60;99.90;;;;;;4153851;28;20401;-65
2024/03/17 06:07:51;;;;;;;9.70;5.43;;;7.60;99.90;;;;;;4154498;28;20060;-65
2024/03/17 06:09:51;;;;;;;8.20;4.93;;;7.60;99.90;;;;;;4154681;28;20175;-65
2024/03/17 06:11:52;;;;;;;10.48;5.43;;;7.60;99.90;;;;;;4152371;28;20418;-66
2024/03/17 06:13:52;;;;;;;9.70;4.88;;;7.50;99.90;;;;;;4159070;28;20033;-65
2024/03/17 06:15:53;;;;;;;8.68;4.90;;;7.60;99.90;;;;;;4158549;28;20060;-65
2024/03/17 06:17:54;;;;;;;9.73;5.88;;;7.60;99.90;;;;;;4157186;28;20037;-66
2024/03/17 06:19:56;;;;;;;13.13;5.57;;;7.60;99.90;;;;;;4159568;28;20079;-65
2024/03/17 06:21:57;;;;;;;10.07;5.97;;;7.50;99.90;;;;;;4157709;28;20382;-65
2024/03/17 06:23:58;;;;;;;8.27;5.35;;;7.50;99.90;;;;;;4158802;28;20029;-60
2024/03/17 06:25:59;;;;;;;10.18;5.22;;;7.60;99.90;;;;;;4151092;28;20061;-60
2024/03/17 06:28:01;;;;;;;8.57;5.07;;;7.60;99.90;;;;;;4158733;28;20179;-60
2024/03/17 06:30:03;;;;;;;9.93;5.78;;;7.60;99.90;;;;;;4148296;28;20182;-59
2024/03/17 06:32:04;;;;;;;9.50;4.90;;;7.60;99.90;;;;;;4154254;28;20132;-60
2024/03/17 06:34:05;;;;;;;9.38;5.43;;;7.70;99.90;;;;;;4153641;28;20053;-59
2024/03/17 06:36:06;;;;;;;10.38;5.90;;;7.70;99.90;;;;;;4155022;28;20034;-59
2024/03/17 06:38:10;;;;;;;10.15;6.00;;;7.70;99.90;;;;;;4155715;28;20517;-61
2024/03/17 06:40:13;;;;;;;10.68;5.65;;;7.70;99.90;;;;;;4155376;28;20042;-60
2024/03/17 06:42:14;;;;;;;8.13;5.35;;;7.70;99.90;;;;;;4147812;28;20087;-59
2024/03/17 06:44:15;;;;;;;8.23;5.32;;;7.70;99.90;;;;;;4159338;28;20029;-60
2024/03/17 06:46:16;;;;;;;6.90;5.50;;;7.70;99.90;;;;;;4157687;28;20050;-60
2024/03/17 06:48:16;;;;;;;10.00;5.40;;;7.70;99.90;;;;;;4151851;28;20119;-60
2024/03/17 06:50:17;;;;;;;11.50;5.47;;;7.70;99.90;;;;;;4157307;28;20556;-60
2024/03/17 06:52:17;;;;;;;7.68;5.45;;;7.80;99.90;;;;;;4158841;28;20042;-60
2024/03/17 06:54:19;;;;;;;9.20;4.97;;;7.80;99.90;;;;;;4157074;28;20397;-59
2024/03/17 06:56:20;;;;;;;9.97;5.60;;;7.90;99.90;;;;;;4154147;28;20474;-60
2024/03/17 06:58:22;;;;;;;7.53;5.07;;;8.10;99.90;;;;;;4158076;28;20048;-59
2024/03/17 07:00:25;;;;;;;;;;;8.30;99.90;;;;;;4157854;28;20225;-60
2024/03/17 07:02:25;;;;;;;9.40;5.47;;;8.50;99.90;;;;;;4159563;28;20369;-60
2024/03/17 07:04:26;;;;;;;11.00;5.90;;;8.60;99.90;;;;;;4159054;28;20072;-59
2024/03/17 07:06:27;;;;;;;7.75;5.05;;;8.60;99.90;;;;;;4157660;28;20041;-59
2024/03/17 07:08:27;;;;;;;10.73;4.88;;;8.80;99.90;;;;;;4158464;28;20103;-59
2024/03/17 07:10:28;;;;;;;10.27;5.47;;;8.80;99.90;;;;;;4157892;28;20053;-60
2024/03/17 07:12:29;;;;;;;7.68;5.18;;;8.90;99.90;;;;;;4152463;28;20072;-59
2024/03/17 07:14:31;;;;;;;8.80;5.20;;;9.00;99.90;;;;;;4158301;28;20596;-59
2024/03/17 07:16:32;;;;;;;6.85;4.53;;;8.90;99.90;;;;;;4154937;28;20107;-59
2024/03/17 07:18:33;;;;;;;7.50;4.45;;;8.90;99.90;;;;;;4158728;28;20033;-59
2024/03/17 07:20:34;;;;;;;8.45;4.97;;;8.90;99.90;;;;;;4157715;28;20132;-60
2024/03/17 07:22:35;;;;;;;7.25;4.65;;;8.90;99.90;;;;;;4159372;28;20518;-59
2024/03/17 07:24:35;;;;;;;7.53;5.10;;;8.90;99.90;;;;;;4158975;28;20037;-59
2024/03/17 07:26:36;;;;;;;11.23;5.10;;;9.00;99.90;;;;;;4156838;28;20028;-59
2024/03/17 07:28:44;;;;;;;9.30;4.93;;;9.10;99.90;;;;;;4157219;28;20033;-61
2024/03/17 07:30:50;;;;;;;6.63;4.32;;;9.20;99.90;;;;;;4157093;28;20076;-59
2024/03/17 07:32:50;;;;;;;6.60;4.38;;;9.20;99.90;;;;;;4157127;28;20136;-59
2024/03/17 07:34:51;;;;;;;7.13;4.55;;;9.50;99.90;;;;;;4159886;28;20118;-60
2024/03/17 07:36:52;;;;;;;7.07;4.30;;;9.90;99.90;;;;;;4157391;28;20034;-59
2024/03/17 07:38:53;;;;;;;9.90;4.57;;;10.40;99.90;;;;;;4156106;28;20037;-60
2024/03/17 07:41:01;;;;;;;5.45;4.03;;;10.80;99.90;;;;;;4154039;28;20178;-59
2024/03/17 07:43:02;;;;;;;8.30;4.05;;;11.10;99.90;;;;;;4154918;28;20053;-60
2024/03/17 07:45:04;;;;;;;4.78;3.60;;;11.10;99.90;;;;;;4157677;28;20048;-61
2024/03/17 07:47:04;;;;;;;10.10;4.18;;;11.00;99.90;;;;;;4159028;28;20048;-59
2024/03/17 07:49:05;;;;;;;8.63;3.65;;;11.00;99.90;;;;;;4158498;28;20041;-59
2024/03/17 07:51:14;;;;;;;5.55;3.80;;;11.00;99.90;;;;;;4158758;28;20474;-59
2024/03/17 07:53:15;;;;;;;7.28;4.18;;;10.80;99.90;;;;;;4160226;28;20389;-59
2024/03/17 07:55:15;;;;;;;6.15;3.75;;;10.80;99.90;;;;;;4156248;28;20068;-59
2024/03/17 07:57:16;;;;;;;12.73;4.35;;;10.60;99.90;;;;;;4159504;28;20037;-59
2024/03/17 07:59:17;;;;;;;7.05;3.92;;;10.60;99.90;;;;;;4158613;28;20512;-59
2024/03/17 08:01:18;;;;;;;7.05;3.90;;;10.50;99.90;;;;;;4160712;28;20160;-59
2024/03/17 08:03:19;;;;;;;6.50;4.05;;;10.60;99.90;;;;;;4159965;28;20088;-59
2024/03/17 08:05:20;;;;;;;8.18;4.75;;;10.80;99.90;;;;;;4159959;28;20067;-59
2024/03/17 08:07:20;;;;;;;7.63;4.57;;;11.00;99.90;;;;;;4160134;28;20037;-59
2024/03/17 08:09:22;;;;;;;6.10;3.85;;;11.20;99.90;;;;;;4160195;28;20084;-59
2024/03/17 08:11:24;;;;;;;7.72;3.67;;;11.40;99.90;;;;;;4160028;28;20104;-59
2024/03/17 08:13:25;;;;;;;5.53;4.05;;;11.70;99.90;;;;;;4161203;28;21362;-59
2024/03/17 08:15:26;;;;;;;5.45;3.60;;;11.80;99.90;;;;;;4158760;28;20033;-59
2024/03/17 08:17:26;;;;;;;5.20;3.60;;;11.90;99.90;;;;;;4159141;28;20065;-59
2024/03/17 08:19:28;;;;;;;5.00;2.90;;;12.00;99.90;;;;;;4161157;28;20041;-59
2024/03/17 08:21:29;;;;;;;6.10;3.50;;;12.10;99.90;;;;;;4160689;28;20052;-59
2024/03/17 08:23:30;;;;;;;4.85;3.17;;;12.10;99.90;;;;;;4161808;28;20441;-59
2024/03/17 08:25:31;;;;;;;6.57;3.90;;;12.20;99.90;;;;;;4160798;28;20095;-59
2024/03/17 08:27:31;;;;;;;7.68;3.47;;;12.10;99.90;;;;;;4161221;28;21475;-59
2024/03/17 08:29:33;;;;;;;6.57;3.38;;;12.20;99.90;;;;;;4158357;28;20073;-60
2024/03/17 08:31:33;;;;;;;5.32;3.63;;;12.20;99.90;;;;;;4160352;28;20046;-59
2024/03/17 08:33:34;;;;;;;6.15;3.83;;;12.20;99.90;;;;;;4161317;28;20057;-59
2024/03/17 08:35:37;;;;;;;7.80;3.60;;;12.10;99.90;;;;;;4160852;28;20034;-59
2024/03/17 08:37:37;;;;;;;;;;;12.00;99.90;;;;;;4160885;28;20397;-59
2024/03/17 08:39:38;;;;;;;6.35;3.40;;;12.00;99.90;;;;;;4160069;28;20016;-61
2024/03/17 08:41:39;;;;;;;5.65;3.38;;;12.00;99.90;;;;;;4156326;28;20449;-60
2024/03/17 08:43:41;;;;;;;6.30;3.67;;;11.90;99.90;;;;;;4156925;28;20037;-60
2024/03/17 08:45:41;;;;;;;6.37;3.40;;;11.90;99.90;;;;;;4157700;28;20038;-75
2024/03/17 08:47:42;;;;;;;5.80;3.58;;;11.80;99.90;;;;;;4156739;28;20038;-77
2024/03/17 08:49:43;;;;;;;5.05;3.22;;;11.70;99.90;;;;;;4157857;28;20037;-77
2024/03/17 08:51:43;;;;;;;6.32;3.30;;;11.70;99.90;;;;;;4156453;28;20056;-77
2024/03/17 08:53:44;;;;;;;6.25;3.50;;;11.70;99.90;;;;;;4157937;28;20452;-77
2024/03/17 08:55:44;;;;;;;6.25;3.63;;;11.70;99.90;;;;;;4157511;28;20026;-77
2024/03/17 08:57:45;;;;;;;4.97;3.35;;;11.60;99.90;;;;;;4156235;28;20053;-77
2024/03/17 08:59:46;;;;;;;5.72;3.28;;;11.60;99.90;;;;;;4157401;28;20041;-78
2024/03/17 09:01:47;;;;;;;5.63;3.85;;;11.60;99.90;;;;;;4154893;28;20073;-77
2024/03/17 09:03:49;;;;;;;5.97;3.75;;;11.50;99.90;;;;;;4155067;28;20048;-77
2024/03/17 09:05:50;;;;;;;7.13;4.05;;;11.50;99.90;;;;;;4156731;28;20645;-77
2024/03/17 09:07:51;;;;;;;7.00;3.78;;;11.40;99.90;;;;;;4158009;28;20080;-76
2024/03/17 09:09:51;;;;;;;5.90;4.07;;;11.40;99.90;;;;;;4159110;28;20042;-76
2024/03/17 09:11:52;;;;;;;7.05;4.20;;;11.30;99.90;;;;;;4155942;28;20469;-77
2024/03/17 09:13:53;;;;;;;7.45;4.03;;;11.30;99.90;;;;;;4157805;28;20038;-77
2024/03/17 09:16:01;;;;;;;5.72;3.70;;;11.20;99.90;;;;;;4156757;28;20454;-78
2024/03/17 09:18:03;;;;;;;5.78;3.65;;;11.10;99.90;;;;;;4156115;28;20044;-78
2024/03/17 09:20:04;;;;;;;8.65;4.50;;;11.00;99.90;;;;;;4156325;28;20076;-77
2024/03/17 09:22:04;;;;;;;6.97;3.85;;;11.00;99.90;;;;;;4155231;28;20486;-78
2024/03/17 09:24:07;;;;;;;9.93;4.28;;;10.90;99.90;;;;;;4157440;28;20036;-78
2024/03/17 09:26:09;;;;;;;;;;;10.90;99.90;;;;;;4156513;28;20038;-78
2024/03/17 09:28:11;;;;;;;7.28;3.70;;;10.90;99.90;;;;;;4155958;28;20328;-78
2024/03/17 09:30:12;;;;;;;6.47;3.72;;;10.90;99.90;;;;;;4155360;28;20064;-78
2024/03/17 09:32:17;;;;;;;4.50;3.58;;;10.90;99.90;;;;;;4155298;28;20038;-73
2024/03/17 09:34:18;;;;;;;4.97;3.50;;;10.90;99.90;;;;;;4156099;28;20050;-78
2024/03/17 09:36:20;;;;;;;5.82;4.15;;;11.00;99.90;;;;;;4154650;28;21311;-79
2024/03/17 09:38:21;;;;;;;6.80;4.22;;;10.90;99.90;;;;;;4157919;28;20485;-77
2024/03/17 09:40:22;;;;;;;6.85;4.63;;;10.80;99.90;;;;;;4155363;28;20042;-77
2024/03/17 09:42:23;;;;;;;7.40;4.13;;;10.80;99.90;;;;;;4157463;28;20482;-78
2024/03/17 09:44:24;;;;;;;7.68;4.43;;;10.80;99.90;;;;;;4156133;28;20025;-78
2024/03/17 09:46:27;;;;;;;7.20;4.50;;;10.80;99.90;;;;;;4155697;28;20072;-78
2024/03/17 09:48:28;;;;;;;6.82;3.80;;;10.80;99.90;;;;;;4156444;28;20033;-78
2024/03/17 09:50:31;;;;;;;8.00;4.00;;;10.80;99.90;;;;;;4152549;28;21865;-79
2024/03/17 09:52:33;;;;;;;;;;;10.90;99.90;;;;;;4157763;28;20049;-78
2024/03/17 09:54:34;;;;;;;7.57;4.55;;;10.90;99.90;;;;;;4155930;28;19983;-63
2024/03/17 09:56:35;;;;;;;6.38;4.53;;;10.90;99.90;;;;;;4149191;28;20034;-63
2024/03/17 09:58:36;;;;;;;5.88;3.70;;;10.90;99.90;;;;;;4154082;28;20463;-63
2024/03/17 10:00:36;;;;;;;5.90;3.90;;;10.90;99.90;;;;;;4153308;28;20125;-63
2024/03/17 10:02:43;;;;;;;8.75;4.35;;;10.90;99.90;;;;;;4148988;28;20045;-63
2024/03/17 10:04:44;;;;;;;5.93;4.30;;;11.00;99.90;;;;;;4148579;28;20395;-64
2024/03/17 10:06:48;;;;;;;6.95;4.50;;;11.00;99.90;;;;;;4152909;28;20048;-63
2024/03/17 10:08:50;;;;;;;6.35;4.05;;;11.00;99.90;;;;;;4153184;28;20038;-63
2024/03/17 10:10:54;;;;;;;7.15;4.78;;;11.00;99.90;;;;;;4150840;28;20046;-63
2024/03/17 10:12:54;;;;;;;5.65;4.05;;;11.00;99.90;;;;;;4156951;28;20046;-63
2024/03/17 10:15:01;;;;;;;5.75;4.15;;;11.00;99.90;;;;;;4155466;28;20445;-63
2024/03/17 10:17:02;;;;;;;8.35;4.90;;;11.10;99.90;;;;;;4156030;28;20227;-63
2024/03/17 10:19:06;;;;;;;5.68;4.13;;;11.10;99.90;;;;;;4155214;28;20473;-63
2024/03/17 10:21:27;;;;;;;6.22;4.28;;;11.20;99.90;;;;;;4152753;28;20033;-63
2024/03/17 10:23:28;;;;;;;6.93;4.53;;;11.30;99.90;;;;;;4153836;28;20080;-63
2024/03/17 10:25:30;;;;;;;6.40;4.40;;;11.30;99.90;;;;;;4156576;28;25546;-63
2024/03/17 10:27:31;;;;;;;7.78;5.00;;;11.30;99.90;;;;;;4156400;28;20048;-63
2024/03/17 10:29:35;;;;;;;6.60;4.82;;;11.40;99.90;;;;;;4156193;28;20045;-63
2024/03/17 10:31:40;;;;;;;8.10;4.68;;;11.50;99.90;;;;;;4153662;28;20049;-63
2024/03/17 10:33:42;;;;;;;9.35;5.20;;;11.50;99.90;;;;;;4143112;28;20038;-64
2024/03/17 10:35:43;;;;;;;7.20;4.47;;;11.50;99.90;;;;;;4135133;28;20037;-63
2024/03/17 10:38:02;;;;;;;7.95;4.60;;;11.60;99.90;;;;;;4154749;28;20163;-64
2024/03/17 10:40:04;;;;;;;8.48;4.60;;;11.70;99.90;;;;;;4155468;28;20056;-66